Time,TemperatureF,DewpointF,PressureIn,WindDirection,WindDirectionDegrees,WindSpeedMPH,WindSpeedGustMPH,Humidity,HourlyPrecipIn,Conditions,Clouds,dailyrainin,SoftwareType,DateUTC
2013-07-24 00:01:00,68.3,66.5,29.75,SSW,204,0.0,4.0,94,0.00,,---,0.00,VWS V14.01,2013-07-24 04:01:00,
2013-07-24 00:06:00,68.3,66.5,29.75,WNW,294,0.0,4.0,94,0.00,,---,0.00,VWS V14.01,2013-07-24 04:06:00,
2013-07-24 00:11:00,68.1,66.3,29.75,SW,233,1.0,4.0,94,0.00,,---,0.00,VWS V14.01,2013-07-24 04:11:00,
2013-07-24 00:16:00,68.0,66.2,29.75,SW,215,0.0,4.0,94,0.00,,---,0.00,VWS V14.01,2013-07-24 04:16:00,
2013-07-24 00:21:00,67.9,66.4,29.75,SW,236,1.0,4.0,95,0.00,,---,0.00,VWS V14.01,2013-07-24 04:21:00,
2013-07-24 00:26:00,67.9,66.1,29.75,WSW,253,0.0,5.0,94,0.00,,---,0.00,VWS V14.01,2013-07-24 04:26:00,
2013-07-24 00:31:00,68.0,66.2,29.75,WNW,302,0.0,2.0,94,0.00,,---,0.00,VWS V14.01,2013-07-24 04:31:00,
2013-07-24 00:36:00,68.0,66.2,29.76,SW,235,2.0,4.0,94,0.00,,---,0.00,VWS V14.01,2013-07-24 04:36:00,
2013-07-24 00:41:00,68.0,66.2,29.76,WNW,285,1.0,4.0,94,0.00,,---,0.00,VWS V14.01,2013-07-24 04:41:00,
2013-07-24 00:46:00,68.0,66.2,29.76,WSW,253,3.0,4.0,94,0.00,,---,0.00,VWS V14.01,2013-07-24 04:46:00,
2013-07-24 00:51:00,67.9,66.4,29.76,West,264,1.0,4.0,95,0.00,,---,0.00,VWS V14.01,2013-07-24 04:51:00,
2013-07-24 00:57:00,67.9,66.4,29.76,WSW,240,2.0,4.0,95,0.00,,---,0.00,VWS V14.01,2013-07-24 04:57:00,
2013-07-24 01:02:00,67.7,66.2,29.76,West,260,1.0,3.0,95,0.00,,---,0.00,VWS V14.01,2013-07-24 05:02:00,
2013-07-24 01:07:00,67.7,66.2,29.76,WSW,237,1.0,4.0,95,0.00,,---,0.00,VWS V14.01,2013-07-24 05:07:00,
2013-07-24 01:12:00,67.6,66.1,29.76,WSW,250,1.0,4.0,95,0.00,,---,0.00,VWS V14.01,2013-07-24 05:12:00,
2013-07-24 01:17:00,67.6,66.1,29.76,WSW,248,0.0,4.0,95,0.00,,---,0.00,VWS V14.01,2013-07-24 05:17:00,
2013-07-24 01:22:00,67.4,66.2,29.76,West,278,1.0,4.0,96,0.00,,---,0.00,VWS V14.01,2013-07-24 05:22:00,
2013-07-24 01:27:00,67.4,66.2,29.76,SSW,193,1.0,4.0,96,0.00,,---,0.00,VWS V14.01,2013-07-24 05:27:00,
2013-07-24 01:32:00,67.4,66.2,29.76,SW,233,1.0,2.0,96,0.00,,---,0.00,VWS V14.01,2013-07-24 05:32:00,
2013-07-24 01:37:00,67.4,66.2,29.75,South,191,0.0,2.0,96,0.00,,---,0.00,VWS V14.01,2013-07-24 05:37:00,
2013-07-24 01:42:00,67.4,66.2,29.75,West,275,2.0,6.0,96,0.00,,---,0.00,VWS V14.01,2013-07-24 05:42:00,
2013-07-24 01:47:00,67.5,66.3,29.75,WSW,253,0.0,6.0,96,0.00,,---,0.00,VWS V14.01,2013-07-24 05:47:00,
2013-07-24 01:52:00,67.5,66.0,29.75,SSW,200,1.0,6.0,95,0.00,,---,0.00,VWS V14.01,2013-07-24 05:52:00,
2013-07-24 01:57:00,67.4,66.2,29.74,SSW,201,1.0,6.0,96,0.00,,---,0.00,VWS V14.01,2013-07-24 05:57:00,
2013-07-24 02:02:00,67.4,65.9,29.74,NW,315,2.0,3.0,95,0.00,,---,0.00,VWS V14.01,2013-07-24 06:02:00,
2013-07-24 02:07:00,67.4,66.2,29.74,WNW,297,0.0,5.0,96,0.00,,---,0.00,VWS V14.01,2013-07-24 06:07:00,
2013-07-24 02:12:00,67.3,65.8,29.74,West,271,0.0,5.0,95,0.00,,---,0.00,VWS V14.01,2013-07-24 06:12:00,
2013-07-24 02:17:00,67.2,65.7,29.74,West,275,0.0,5.0,95,0.00,,---,0.00,VWS V14.01,2013-07-24 06:17:00,
2013-07-24 02:22:00,67.1,65.6,29.73,SSW,198,1.0,5.0,95,0.00,,---,0.00,VWS V14.01,2013-07-24 06:22:00,
2013-07-24 02:27:00,67.0,65.8,29.73,SSW,200,0.0,5.0,96,0.00,,---,0.00,VWS V14.01,2013-07-24 06:27:00,
2013-07-24 02:32:00,66.9,65.7,29.73,East,100,1.0,1.0,96,0.00,,---,0.00,VWS V14.01,2013-07-24 06:32:00,
2013-07-24 02:37:00,66.7,65.5,29.72,East,101,0.0,1.0,96,0.00,,---,0.00,VWS V14.01,2013-07-24 06:37:00,
2013-07-24 02:42:00,66.5,65.3,29.72,East,101,0.0,1.0,96,0.00,,---,0.00,VWS V14.01,2013-07-24 06:42:00,
2013-07-24 02:47:00,66.2,65.0,29.72,East,101,0.0,1.0,96,0.00,,---,0.00,VWS V14.01,2013-07-24 06:47:00,
2013-07-24 02:52:00,66.0,64.8,29.72,East,100,0.0,1.0,96,0.00,,---,0.00,VWS V14.01,2013-07-24 06:52:00,
2013-07-24 02:57:00,66.0,65.1,29.73,SE,130,1.0,1.0,97,0.00,,---,0.00,VWS V14.01,2013-07-24 06:57:00,
2013-07-24 03:02:00,66.0,65.1,29.72,SE,141,0.0,0.0,97,0.00,,---,0.00,VWS V14.01,2013-07-24 07:02:00,
2013-07-24 03:07:00,65.9,65.0,29.72,SE,138,0.0,1.0,97,0.00,,---,0.00,VWS V14.01,2013-07-24 07:07:00,
2013-07-24 03:12:00,66.0,65.1,29.72,SW,228,0.0,1.0,97,0.00,,---,0.00,VWS V14.01,2013-07-24 07:12:00,
2013-07-24 03:17:00,66.1,65.5,29.72,SW,218,0.0,5.0,98,0.00,,---,0.00,VWS V14.01,2013-07-24 07:17:00,
2013-07-24 03:22:00,66.4,65.5,29.71,WSW,250,0.0,5.0,97,0.00,,---,0.00,VWS V14.01,2013-07-24 07:22:00,
2013-07-24 03:27:00,66.5,65.3,29.71,WSW,253,0.0,5.0,96,0.00,,---,0.00,VWS V14.01,2013-07-24 07:27:00,
2013-07-24 03:32:00,66.6,65.4,29.71,SE,134,0.0,1.0,96,0.00,,---,0.00,VWS V14.01,2013-07-24 07:32:00,
2013-07-24 03:37:00,66.5,65.3,29.71,SW,225,0.0,2.0,96,0.00,,---,0.00,VWS V14.01,2013-07-24 07:37:00,
2013-07-24 03:42:00,66.5,65.3,29.71,WNW,287,0.0,2.0,96,0.00,,---,0.00,VWS V14.01,2013-07-24 07:42:00,
2013-07-24 03:47:00,66.5,65.3,29.71,WSW,239,1.0,4.0,96,0.00,,---,0.00,VWS V14.01,2013-07-24 07:47:00,
2013-07-24 03:52:00,66.5,65.3,29.71,SW,225,0.0,4.0,96,0.00,,---,0.00,VWS V14.01,2013-07-24 07:52:00,
2013-07-24 03:57:00,66.5,65.3,29.71,SSW,203,3.0,4.0,96,0.00,,---,0.00,VWS V14.01,2013-07-24 07:57:00,
2013-07-24 04:02:00,66.5,65.6,29.71,NW,309,1.0,3.0,97,0.00,,---,0.00,VWS V14.01,2013-07-24 08:02:00,
2013-07-24 04:07:00,66.4,65.5,29.71,West,267,1.0,4.0,97,0.00,,---,0.00,VWS V14.01,2013-07-24 08:07:00,
2013-07-24 04:12:00,66.4,65.5,29.72,WNW,302,1.0,4.0,97,0.00,,---,0.00,VWS V14.01,2013-07-24 08:12:00,
2013-07-24 04:17:00,66.4,65.5,29.73,SW,215,3.0,4.0,97,0.00,,---,0.00,VWS V14.01,2013-07-24 08:17:00,
2013-07-24 04:22:00,66.4,65.5,29.73,NW,305,2.0,4.0,97,0.00,,---,0.00,VWS V14.01,2013-07-24 08:22:00,
2013-07-24 04:27:00,66.2,65.3,29.72,West,269,1.0,7.0,97,0.00,,---,0.00,VWS V14.01,2013-07-24 08:27:00,
2013-07-24 04:33:00,66.2,65.0,29.73,North,354,2.0,8.0,96,0.00,,---,0.00,VWS V14.01,2013-07-24 08:33:00,
2013-07-24 04:38:00,66.1,64.6,29.73,SSW,210,6.0,8.0,95,0.00,,---,0.00,VWS V14.01,2013-07-24 08:38:00,
2013-07-24 04:42:00,66.0,64.5,29.73,North,360,1.0,8.0,95,0.00,,---,0.00,VWS V14.01,2013-07-24 08:42:00,
2013-07-24 04:48:00,65.7,63.9,29.73,WNW,292,3.0,8.0,94,0.00,,---,0.00,VWS V14.01,2013-07-24 08:48:00,
2013-07-24 04:53:00,65.2,63.1,29.73,NW,319,2.0,9.0,93,0.00,,---,0.00,VWS V14.01,2013-07-24 08:53:00,
2013-07-24 04:58:00,64.8,62.7,29.74,ENE,67,1.0,15.0,93,0.00,,---,0.00,VWS V14.01,2013-07-24 08:58:00,
2013-07-24 05:03:00,64.5,62.7,29.74,SSE,155,2.0,7.0,94,0.00,,---,0.00,VWS V14.01,2013-07-24 09:03:00,
2013-07-24 05:08:00,64.1,62.3,29.74,NE,34,4.0,7.0,94,0.00,,---,0.00,VWS V14.01,2013-07-24 09:08:00,
2013-07-24 05:13:00,63.6,61.8,29.74,NE,34,2.0,7.0,94,0.05,,---,0.05,VWS V14.01,2013-07-24 09:13:00,
2013-07-24 05:18:00,62.9,61.2,29.73,NNE,13,1.0,7.0,94,0.09,,---,0.09,VWS V14.01,2013-07-24 09:18:00,
2013-07-24 05:23:00,62.6,61.2,29.73,SW,219,2.0,7.0,95,0.09,,---,0.09,VWS V14.01,2013-07-24 09:23:00,
2013-07-24 05:28:00,62.4,61.2,29.73,SSW,201,2.0,7.0,96,0.09,,---,0.09,VWS V14.01,2013-07-24 09:28:00,
2013-07-24 05:33:00,62.2,61.3,29.73,SW,224,3.0,3.0,97,0.09,,---,0.09,VWS V14.01,2013-07-24 09:33:00,
2013-07-24 05:38:00,62.0,61.1,29.73,SW,222,2.0,5.0,97,0.09,,---,0.09,VWS V14.01,2013-07-24 09:38:00,
2013-07-24 05:43:00,61.8,60.7,29.73,WSW,240,0.0,5.0,96,0.09,,---,0.09,VWS V14.01,2013-07-24 09:43:00,
2013-07-24 05:48:00,61.6,60.5,29.73,SSW,208,2.0,5.0,96,0.09,,---,0.09,VWS V14.01,2013-07-24 09:48:00,
2013-07-24 05:53:00,61.5,60.1,29.73,West,277,0.0,5.0,95,0.09,,---,0.09,VWS V14.01,2013-07-24 09:53:00,
2013-07-24 05:58:00,61.3,59.6,29.73,SW,228,3.0,5.0,94,0.09,,---,0.09,VWS V14.01,2013-07-24 09:58:00,
2013-07-24 06:03:00,61.2,59.5,29.73,West,267,1.0,5.0,94,0.09,,---,0.09,VWS V14.01,2013-07-24 10:03:00,
2013-07-24 06:08:00,61.1,59.4,29.73,SSW,193,2.0,5.0,94,0.09,,---,0.09,VWS V14.01,2013-07-24 10:08:00,
2013-07-24 06:13:00,61.0,59.0,29.74,SSW,197,4.0,6.0,93,0.10,,---,0.10,VWS V14.01,2013-07-24 10:13:00,
2013-07-24 06:18:00,60.9,59.2,29.74,SSW,195,2.0,8.0,94,0.10,,---,0.10,VWS V14.01,2013-07-24 10:18:00,
2013-07-24 06:23:00,60.7,59.0,29.74,WSW,254,0.0,8.0,94,0.11,,---,0.11,VWS V14.01,2013-07-24 10:23:00,
2013-07-24 06:28:00,60.5,58.8,29.75,SSW,193,0.0,8.0,94,0.12,,---,0.12,VWS V14.01,2013-07-24 10:28:00,
2013-07-24 06:33:00,60.3,58.6,29.75,South,191,0.0,0.0,94,0.05,,---,0.14,VWS V14.01,2013-07-24 10:33:00,
2013-07-24 06:38:00,60.2,58.5,29.75,ESE,120,1.0,2.0,94,0.06,,---,0.15,VWS V14.01,2013-07-24 10:38:00,
2013-07-24 06:43:00,60.1,58.7,29.75,ESE,112,0.0,2.0,95,0.07,,---,0.16,VWS V14.01,2013-07-24 10:43:00,
2013-07-24 06:48:00,60.0,58.6,29.74,ESE,113,0.0,2.0,95,0.08,,---,0.17,VWS V14.01,2013-07-24 10:48:00,
2013-07-24 06:53:00,59.9,58.8,29.74,SE,124,0.0,2.0,96,0.10,,---,0.19,VWS V14.01,2013-07-24 10:53:00,
2013-07-24 06:58:00,59.9,58.8,29.74,SE,124,0.0,2.0,96,0.10,,---,0.19,VWS V14.01,2013-07-24 10:58:00,
2013-07-24 07:03:00,59.9,58.8,29.74,SE,141,0.0,0.0,96,0.10,,---,0.19,VWS V14.01,2013-07-24 11:03:00,
2013-07-24 07:08:00,60.0,59.2,29.75,WSW,250,1.0,1.0,97,0.10,,---,0.19,VWS V14.01,2013-07-24 11:08:00,
2013-07-24 07:13:00,60.1,59.2,29.75,SW,235,0.0,2.0,97,0.10,,---,0.19,VWS V14.01,2013-07-24 11:13:00,
2013-07-24 07:18:00,60.4,59.8,29.75,SW,231,0.0,5.0,98,0.10,,---,0.19,VWS V14.01,2013-07-24 11:18:00,
2013-07-24 07:23:00,60.9,60.6,29.75,West,277,1.0,7.0,99,0.10,,---,0.19,VWS V14.01,2013-07-24 11:23:00,
2013-07-24 07:28:00,61.4,61.1,29.75,West,269,4.0,7.0,99,0.10,,---,0.19,VWS V14.01,2013-07-24 11:28:00,
2013-07-24 07:33:00,61.8,61.5,29.75,WSW,245,0.0,6.0,99,0.06,,---,0.19,VWS V14.01,2013-07-24 11:33:00,
2013-07-24 07:38:00,61.9,61.3,29.75,NW,314,1.0,6.0,98,0.06,,---,0.19,VWS V14.01,2013-07-24 11:38:00,
2013-07-24 07:43:00,62.0,61.4,29.75,WNW,302,3.0,6.0,98,0.06,,---,0.19,VWS V14.01,2013-07-24 11:43:00,
2013-07-24 07:48:00,62.1,61.5,29.75,WNW,292,2.0,6.0,98,0.06,,---,0.19,VWS V14.01,2013-07-24 11:48:00,
2013-07-24 07:53:00,62.2,61.6,29.75,SSW,201,2.0,6.0,98,0.06,,---,0.19,VWS V14.01,2013-07-24 11:53:00,
2013-07-24 07:58:00,62.4,62.1,29.76,WSW,245,4.0,6.0,99,0.06,,---,0.19,VWS V14.01,2013-07-24 11:58:00,
2013-07-24 08:03:00,62.9,62.6,29.75,WNW,289,2.0,2.0,99,0.00,,---,0.19,VWS V14.01,2013-07-24 12:03:00,
2013-07-24 08:08:00,63.2,62.9,29.75,West,262,1.0,4.0,99,0.00,,---,0.19,VWS V14.01,2013-07-24 12:08:00,
2013-07-24 08:14:00,63.4,62.8,29.76,SSW,204,1.0,4.0,98,0.00,,---,0.19,VWS V14.01,2013-07-24 12:14:00,
2013-07-24 08:19:00,63.5,62.9,29.76,West,266,2.0,4.0,98,0.00,,---,0.19,VWS V14.01,2013-07-24 12:19:00,
2013-07-24 08:24:00,63.6,63.0,29.77,SSW,195,3.0,4.0,98,0.00,,---,0.19,VWS V14.01,2013-07-24 12:24:00,
2013-07-24 08:29:00,63.6,63.0,29.77,West,262,4.0,6.0,98,0.00,,---,0.19,VWS V14.01,2013-07-24 12:29:00,
2013-07-24 08:34:00,63.5,62.9,29.77,West,274,2.0,5.0,98,0.00,,---,0.19,VWS V14.01,2013-07-24 12:34:00,
2013-07-24 08:39:00,63.2,62.3,29.77,WSW,258,2.0,6.0,97,0.00,,---,0.19,VWS V14.01,2013-07-24 12:39:00,
2013-07-24 08:44:00,63.0,62.1,29.77,SSW,203,4.0,7.0,97,0.00,,---,0.19,VWS V14.01,2013-07-24 12:44:00,
2013-07-24 08:49:00,63.0,62.4,29.78,SW,226,4.0,7.0,98,0.00,,---,0.19,VWS V14.01,2013-07-24 12:49:00,
2013-07-24 08:54:00,62.7,61.8,29.77,WNW,284,2.0,7.0,97,0.00,,---,0.19,VWS V14.01,2013-07-24 12:54:00,
2013-07-24 08:59:00,62.6,62.0,29.78,WNW,302,1.0,7.0,98,0.00,,---,0.19,VWS V14.01,2013-07-24 12:59:00,
2013-07-24 09:04:00,62.6,62.0,29.78,WSW,255,0.0,6.0,98,0.00,,---,0.19,VWS V14.01,2013-07-24 13:04:00,
2013-07-24 09:09:00,62.8,62.5,29.78,WNW,297,0.0,6.0,99,0.00,,---,0.19,VWS V14.01,2013-07-24 13:09:00,
2013-07-24 09:14:00,63.0,62.7,29.79,SSW,207,0.0,6.0,99,0.00,,---,0.19,VWS V14.01,2013-07-24 13:14:00,
2013-07-24 09:19:00,63.1,62.8,29.78,SE,128,0.0,6.0,99,0.00,,---,0.19,VWS V14.01,2013-07-24 13:19:00,
2013-07-24 09:24:00,63.1,62.8,29.78,WSW,253,1.0,6.0,99,0.00,,---,0.19,VWS V14.01,2013-07-24 13:24:00,
2013-07-24 09:29:00,63.2,62.9,29.78,WSW,243,1.0,6.0,99,0.00,,---,0.19,VWS V14.01,2013-07-24 13:29:00,
2013-07-24 09:34:00,63.2,62.9,29.78,WNW,289,3.0,4.0,99,0.00,,---,0.19,VWS V14.01,2013-07-24 13:34:00,
2013-07-24 09:39:00,63.3,63.0,29.78,West,274,0.0,4.0,99,0.00,,---,0.19,VWS V14.01,2013-07-24 13:39:00,
2013-07-24 09:44:00,63.4,63.1,29.78,WNW,288,1.0,4.0,99,0.00,,---,0.19,VWS V14.01,2013-07-24 13:44:00,
2013-07-24 09:49:00,63.4,63.1,29.79,WSW,245,2.0,4.0,99,0.00,,---,0.19,VWS V14.01,2013-07-24 13:49:00,
2013-07-24 09:54:00,63.3,63.0,29.79,North,357,0.0,4.0,99,0.00,,---,0.19,VWS V14.01,2013-07-24 13:54:00,
2013-07-24 09:59:00,63.3,63.0,29.79,NW,321,0.0,4.0,99,0.00,,---,0.19,VWS V14.01,2013-07-24 13:59:00,
2013-07-24 10:04:00,63.4,63.1,29.79,SW,222,2.0,2.0,99,0.00,,---,0.19,VWS V14.01,2013-07-24 14:04:00,
2013-07-24 10:09:00,63.4,63.1,29.79,WNW,287,0.0,4.0,99,0.00,,---,0.19,VWS V14.01,2013-07-24 14:09:00,
2013-07-24 10:14:00,63.5,63.2,29.79,SW,228,2.0,4.0,99,0.00,,---,0.19,VWS V14.01,2013-07-24 14:14:00,
2013-07-24 10:19:00,63.6,63.3,29.79,WSW,239,2.0,5.0,99,0.00,,---,0.19,VWS V14.01,2013-07-24 14:19:00,
2013-07-24 10:24:00,63.6,63.3,29.79,West,273,3.0,5.0,99,0.00,,---,0.19,VWS V14.01,2013-07-24 14:24:00,
2013-07-24 10:29:00,63.7,63.4,29.80,West,263,1.0,5.0,99,0.00,,---,0.19,VWS V14.01,2013-07-24 14:29:00,
2013-07-24 10:34:00,63.9,63.6,29.80,WSW,243,1.0,5.0,99,0.00,,---,0.19,VWS V14.01,2013-07-24 14:34:00,
2013-07-24 10:39:00,63.9,63.6,29.80,NW,314,1.0,5.0,99,0.00,,---,0.19,VWS V14.01,2013-07-24 14:39:00,
2013-07-24 10:44:00,63.9,63.6,29.80,WSW,240,0.0,5.0,99,0.00,,---,0.19,VWS V14.01,2013-07-24 14:44:00,
2013-07-24 10:49:00,63.9,63.6,29.80,SW,222,7.0,7.0,99,0.00,,---,0.19,VWS V14.01,2013-07-24 14:49:00,
2013-07-24 10:54:00,64.0,63.7,29.80,WNW,283,0.0,7.0,99,0.00,,---,0.19,VWS V14.01,2013-07-24 14:54:00,
2013-07-24 10:59:00,64.0,63.7,29.80,NW,312,1.0,7.0,99,0.00,,---,0.19,VWS V14.01,2013-07-24 14:59:00,
2013-07-24 11:04:00,64.1,63.8,29.80,WNW,288,0.0,3.0,99,0.00,,---,0.19,VWS V14.01,2013-07-24 15:04:00,
2013-07-24 11:09:00,64.3,64.0,29.80,WNW,292,0.0,3.0,99,0.00,,---,0.19,VWS V14.01,2013-07-24 15:09:00,
2013-07-24 11:14:00,64.3,64.0,29.81,WNW,290,2.0,4.0,99,0.00,,---,0.19,VWS V14.01,2013-07-24 15:14:00,
2013-07-24 11:19:00,64.2,63.9,29.81,WNW,283,1.0,5.0,99,0.00,,---,0.19,VWS V14.01,2013-07-24 15:19:00,
2013-07-24 11:24:00,64.3,64.0,29.81,SSW,193,0.0,5.0,99,0.00,,---,0.19,VWS V14.01,2013-07-24 15:24:00,
2013-07-24 11:29:00,64.7,64.7,29.81,West,277,0.0,5.0,100,0.00,,---,0.19,VWS V14.01,2013-07-24 15:29:00,
2013-07-24 11:34:00,64.7,64.4,29.81,South,170,2.0,3.0,99,0.00,,---,0.19,VWS V14.01,2013-07-24 15:34:00,
2013-07-24 11:39:00,65.0,64.7,29.80,North,1,1.0,3.0,99,0.00,,---,0.19,VWS V14.01,2013-07-24 15:39:00,
2013-07-24 11:44:00,65.0,64.7,29.81,NNW,328,0.0,3.0,99,0.00,,---,0.19,VWS V14.01,2013-07-24 15:44:00,
2013-07-24 11:49:00,65.0,64.7,29.81,WNW,297,0.0,3.0,99,0.00,,---,0.19,VWS V14.01,2013-07-24 15:49:00,
2013-07-24 11:54:00,65.3,65.0,29.81,WSW,240,2.0,3.0,99,0.00,,---,0.19,VWS V14.01,2013-07-24 15:54:00,
2013-07-24 11:59:00,65.3,65.0,29.81,WSW,253,0.0,0.0,99,0.00,,---,0.19,VWS V14.01,2013-07-24 15:59:00,
2013-07-24 12:04:00,65.8,65.5,29.81,SW,228,3.0,4.0,99,0.00,,---,0.19,VWS V14.01,2013-07-24 16:04:00,
2013-07-24 12:09:00,67.0,66.7,29.81,North,9,1.0,5.0,99,0.00,,---,0.19,VWS V14.01,2013-07-24 16:09:00,
2013-07-24 12:14:00,67.6,66.7,29.81,WSW,249,4.0,7.0,97,0.00,,---,0.19,VWS V14.01,2013-07-24 16:14:00,
2013-07-24 12:19:00,67.6,66.1,29.81,NNW,328,5.0,7.0,95,0.00,,---,0.19,VWS V14.01,2013-07-24 16:19:00,
2013-07-24 12:24:00,68.2,66.7,29.80,SW,235,1.0,7.0,95,0.00,,---,0.19,VWS V14.01,2013-07-24 16:24:00,
2013-07-24 12:30:00,69.0,66.6,29.80,SW,223,3.0,3.0,92,0.00,,---,0.19,VWS V14.01,2013-07-24 16:30:00,
2013-07-24 12:35:00,69.7,66.6,29.80,SW,235,1.0,8.0,90,0.00,,---,0.19,VWS V14.01,2013-07-24 16:35:00,
2013-07-24 12:40:00,70.7,67.3,29.81,SW,236,2.0,8.0,89,0.00,,---,0.19,VWS V14.01,2013-07-24 16:40:00,
2013-07-24 12:45:00,70.5,66.1,29.81,West,274,1.0,8.0,86,0.00,,---,0.19,VWS V14.01,2013-07-24 16:45:00,
2013-07-24 12:50:00,70.7,66.0,29.80,South,186,2.0,8.0,85,0.00,,---,0.19,VWS V14.01,2013-07-24 16:50:00,
2013-07-24 12:55:00,71.2,66.5,29.80,WNW,291,1.0,8.0,85,0.00,,---,0.19,VWS V14.01,2013-07-24 16:55:00,
2013-07-24 13:00:00,70.9,65.1,29.80,West,274,2.0,3.0,82,0.00,,---,0.19,VWS V14.01,2013-07-24 17:00:00,
2013-07-24 13:05:00,71.3,66.2,29.80,SSW,198,5.0,5.0,84,0.00,,---,0.19,VWS V14.01,2013-07-24 17:05:00,
2013-07-24 13:10:00,72.1,65.2,29.80,WNW,293,3.0,10.0,79,0.00,,---,0.19,VWS V14.01,2013-07-24 17:10:00,
2013-07-24 13:15:00,73.1,65.5,29.80,WSW,248,3.0,10.0,77,0.00,,---,0.19,VWS V14.01,2013-07-24 17:15:00,
2013-07-24 13:20:00,73.0,64.6,29.79,WSW,256,2.0,11.0,75,0.00,,---,0.19,VWS V14.01,2013-07-24 17:20:00,
2013-07-24 13:25:00,72.7,65.4,29.79,South,174,1.0,11.0,78,0.00,,---,0.19,VWS V14.01,2013-07-24 17:25:00,
2013-07-24 13:30:00,73.6,66.3,29.79,West,273,1.0,2.0,78,0.00,,---,0.19,VWS V14.01,2013-07-24 17:30:00,
2013-07-24 13:35:00,73.7,65.7,29.79,South,170,2.0,5.0,76,0.00,,---,0.19,VWS V14.01,2013-07-24 17:35:00,
2013-07-24 13:40:00,73.7,65.7,29.79,WNW,288,1.0,5.0,76,0.00,,---,0.19,VWS V14.01,2013-07-24 17:40:00,
2013-07-24 13:45:00,73.9,64.3,29.79,NNW,345,1.0,5.0,72,0.00,,---,0.19,VWS V14.01,2013-07-24 17:45:00,
2013-07-24 13:50:00,74.2,65.0,29.79,NW,307,0.0,5.0,73,0.00,,---,0.19,VWS V14.01,2013-07-24 17:50:00,
2013-07-24 13:55:00,74.5,64.5,29.79,SSE,167,2.0,7.0,71,0.00,,---,0.19,VWS V14.01,2013-07-24 17:55:00,
2013-07-24 14:00:00,74.4,65.2,29.79,ENE,72,2.0,4.0,73,0.00,,---,0.19,VWS V14.01,2013-07-24 18:00:00,
2013-07-24 14:05:00,74.6,65.4,29.79,SSW,206,5.0,6.0,73,0.00,,---,0.19,VWS V14.01,2013-07-24 18:05:00,
2013-07-24 14:10:00,74.7,64.3,29.79,WNW,293,2.0,6.0,70,0.00,,---,0.19,VWS V14.01,2013-07-24 18:10:00,
2013-07-24 14:15:00,74.4,63.6,29.79,SSW,206,2.0,9.0,69,0.00,,---,0.19,VWS V14.01,2013-07-24 18:15:00,
2013-07-24 14:20:00,73.9,64.7,29.79,WNW,297,2.0,9.0,73,0.00,,---,0.19,VWS V14.01,2013-07-24 18:20:00,
2013-07-24 14:25:00,73.5,64.3,29.79,WNW,291,2.0,9.0,73,0.00,,---,0.19,VWS V14.01,2013-07-24 18:25:00,
2013-07-24 14:30:00,73.6,65.2,29.79,SW,221,2.0,4.0,75,0.00,,---,0.19,VWS V14.01,2013-07-24 18:30:00,
2013-07-24 14:35:00,74.2,63.4,29.79,SW,228,3.0,7.0,69,0.00,,---,0.19,VWS V14.01,2013-07-24 18:35:00,
2013-07-24 14:40:00,73.5,63.5,29.79,WSW,242,4.0,10.0,71,0.00,,---,0.19,VWS V14.01,2013-07-24 18:40:00,
2013-07-24 14:45:00,73.2,63.2,29.80,WNW,300,1.0,10.0,71,0.00,,---,0.19,VWS V14.01,2013-07-24 18:45:00,
2013-07-24 14:50:00,72.9,64.5,29.79,North,352,7.0,10.0,75,0.00,,---,0.19,VWS V14.01,2013-07-24 18:50:00,
2013-07-24 14:55:00,71.9,64.7,29.80,WNW,297,2.0,10.0,78,0.00,,---,0.19,VWS V14.01,2013-07-24 18:55:00,
2013-07-24 15:00:00,71.4,64.2,29.80,NNW,341,3.0,4.0,78,0.00,,---,0.19,VWS V14.01,2013-07-24 19:00:00,
2013-07-24 15:05:00,71.5,65.0,29.80,WNW,284,2.0,6.0,80,0.00,,---,0.19,VWS V14.01,2013-07-24 19:05:00,
2013-07-24 15:10:00,71.9,65.8,29.80,West,259,1.0,6.0,81,0.00,,---,0.19,VWS V14.01,2013-07-24 19:10:00,
2013-07-24 15:15:00,73.2,68.4,29.80,West,281,3.0,6.0,85,0.00,,---,0.19,VWS V14.01,2013-07-24 19:15:00,
2013-07-24 15:20:00,73.7,65.3,29.80,NNE,27,2.0,6.0,75,0.00,,---,0.19,VWS V14.01,2013-07-24 19:20:00,
2013-07-24 15:25:00,73.8,65.0,29.80,WSW,239,3.0,6.0,74,0.00,,---,0.19,VWS V14.01,2013-07-24 19:25:00,
2013-07-24 15:31:00,74.0,66.0,29.79,West,265,3.0,4.0,76,0.00,,---,0.19,VWS V14.01,2013-07-24 19:31:00,
2013-07-24 15:36:00,74.4,66.0,29.79,SW,231,1.0,5.0,75,0.00,,---,0.19,VWS V14.01,2013-07-24 19:36:00,
2013-07-24 15:41:00,74.5,64.9,29.79,SSW,206,0.0,5.0,72,0.00,,---,0.19,VWS V14.01,2013-07-24 19:41:00,
2013-07-24 15:46:00,74.3,64.3,29.79,WNW,301,2.0,5.0,71,0.00,,---,0.19,VWS V14.01,2013-07-24 19:46:00,
2013-07-24 15:51:00,73.7,64.5,29.79,NW,318,1.0,6.0,73,0.00,,---,0.19,VWS V14.01,2013-07-24 19:51:00,
2013-07-24 15:56:00,73.7,64.5,29.79,WNW,288,0.0,6.0,73,0.00,,---,0.19,VWS V14.01,2013-07-24 19:56:00,
2013-07-24 16:01:00,74.0,64.4,29.79,West,274,2.0,9.0,72,0.00,,---,0.19,VWS V14.01,2013-07-24 20:01:00,
2013-07-24 16:06:00,74.4,64.0,29.79,West,270,4.0,9.0,70,0.00,,---,0.19,VWS V14.01,2013-07-24 20:06:00,
2013-07-24 16:11:00,73.8,62.6,29.79,South,172,1.0,9.0,68,0.00,,---,0.19,VWS V14.01,2013-07-24 20:11:00,
2013-07-24 16:16:00,73.2,62.4,29.78,NNW,347,2.0,9.0,69,0.00,,---,0.19,VWS V14.01,2013-07-24 20:16:00,
2013-07-24 16:21:00,73.0,63.8,29.79,SW,233,2.0,9.0,73,0.00,,---,0.19,VWS V14.01,2013-07-24 20:21:00,
2013-07-24 16:27:00,72.9,63.3,29.79,WNW,290,1.0,9.0,72,0.00,,---,0.19,VWS V14.01,2013-07-24 20:27:00,
2013-07-24 16:32:00,72.6,64.2,29.79,West,273,3.0,5.0,75,0.00,,---,0.19,VWS V14.01,2013-07-24 20:32:00,
2013-07-24 16:37:00,71.8,64.6,29.79,North,354,2.0,8.0,78,0.00,,---,0.19,VWS V14.01,2013-07-24 20:37:00,
2013-07-24 16:42:00,71.6,65.1,29.79,North,359,1.0,8.0,80,0.00,,---,0.19,VWS V14.01,2013-07-24 20:42:00,
2013-07-24 16:47:00,71.7,65.2,29.79,NNW,342,6.0,8.0,80,0.00,,---,0.19,VWS V14.01,2013-07-24 20:47:00,
2013-07-24 16:52:00,71.7,65.2,29.79,West,274,5.0,8.0,80,0.00,,---,0.19,VWS V14.01,2013-07-24 20:52:00,
2013-07-24 16:57:00,71.6,65.5,29.79,NE,47,2.0,8.0,81,0.00,,---,0.19,VWS V14.01,2013-07-24 20:57:00,
2013-07-24 17:02:00,71.5,65.7,29.79,NW,320,1.0,4.0,82,0.00,,---,0.19,VWS V14.01,2013-07-24 21:02:00,
2013-07-24 17:07:00,71.1,65.0,29.79,WNW,297,4.0,9.0,81,0.00,,---,0.19,VWS V14.01,2013-07-24 21:07:00,
2013-07-24 17:12:00,71.1,66.0,29.79,WNW,287,3.0,9.0,84,0.00,,---,0.19,VWS V14.01,2013-07-24 21:12:00,
2013-07-24 17:17:00,71.2,65.4,29.80,NNW,336,2.0,9.0,82,0.00,,---,0.19,VWS V14.01,2013-07-24 21:17:00,
2013-07-24 17:22:00,70.8,65.0,29.79,North,11,3.0,9.0,82,0.00,,---,0.19,VWS V14.01,2013-07-24 21:22:00,
2013-07-24 17:27:00,70.3,64.9,29.80,WNW,302,3.0,9.0,83,0.00,,---,0.19,VWS V14.01,2013-07-24 21:27:00,
2013-07-24 17:32:00,69.6,64.6,29.80,NNW,338,10.0,10.0,84,0.00,,---,0.19,VWS V14.01,2013-07-24 21:32:00,
2013-07-24 17:37:00,68.9,63.5,29.80,North,358,2.0,11.0,83,0.00,,---,0.19,VWS V14.01,2013-07-24 21:37:00,
2013-07-24 17:42:00,68.4,63.0,29.80,NNW,348,3.0,11.0,83,0.00,,---,0.19,VWS V14.01,2013-07-24 21:42:00,
2013-07-24 17:47:00,68.5,63.5,29.79,NNE,27,5.0,11.0,84,0.00,,---,0.19,VWS V14.01,2013-07-24 21:47:00,
2013-07-24 17:52:00,69.1,64.1,29.79,NNW,332,4.0,11.0,84,0.00,,---,0.19,VWS V14.01,2013-07-24 21:52:00,
2013-07-24 17:57:00,70.0,64.6,29.79,ENE,58,1.0,11.0,83,0.00,,---,0.19,VWS V14.01,2013-07-24 21:57:00,
2013-07-24 18:02:00,70.2,64.4,29.79,NNW,338,2.0,6.0,82,0.00,,---,0.19,VWS V14.01,2013-07-24 22:02:00,
2013-07-24 18:08:00,70.6,64.8,29.80,West,281,1.0,6.0,82,0.00,,---,0.19,VWS V14.01,2013-07-24 22:08:00,
2013-07-24 18:13:00,70.8,64.3,29.79,ESE,120,1.0,6.0,80,0.00,,---,0.19,VWS V14.01,2013-07-24 22:13:00,
2013-07-24 18:18:00,70.8,63.6,29.80,NNE,33,1.0,6.0,78,0.00,,---,0.19,VWS V14.01,2013-07-24 22:18:00,
2013-07-24 18:23:00,69.8,63.4,29.79,North,11,3.0,6.0,80,0.00,,---,0.19,VWS V14.01,2013-07-24 22:23:00,
2013-07-24 18:28:00,69.1,62.7,29.80,West,280,1.0,6.0,80,0.00,,---,0.19,VWS V14.01,2013-07-24 22:28:00,
2013-07-24 18:33:00,68.6,62.9,29.80,NNW,346,6.0,6.0,82,0.00,,---,0.19,VWS V14.01,2013-07-24 22:33:00,
2013-07-24 18:38:00,68.3,62.9,29.80,North,356,1.0,6.0,83,0.00,,---,0.19,VWS V14.01,2013-07-24 22:38:00,
2013-07-24 18:43:00,68.0,63.0,29.80,WNW,287,3.0,6.0,84,0.00,,---,0.19,VWS V14.01,2013-07-24 22:43:00,
2013-07-24 18:48:00,67.7,63.0,29.80,NNW,339,2.0,6.0,85,0.00,,---,0.19,VWS V14.01,2013-07-24 22:48:00,
2013-07-24 18:53:00,67.3,63.0,29.80,WNW,300,1.0,6.0,86,0.00,,---,0.19,VWS V14.01,2013-07-24 22:53:00,
2013-07-24 18:58:00,66.9,62.6,29.80,WNW,290,0.0,6.0,86,0.00,,---,0.19,VWS V14.01,2013-07-24 22:58:00,
2013-07-24 19:03:00,66.6,62.0,29.81,NNW,332,3.0,6.0,85,0.00,,---,0.19,VWS V14.01,2013-07-24 23:03:00,
2013-07-24 19:08:00,66.3,62.3,29.81,NW,305,1.0,7.0,87,0.00,,---,0.19,VWS V14.01,2013-07-24 23:08:00,
2013-07-24 19:13:00,66.2,62.5,29.81,NE,53,1.0,9.0,88,0.00,,---,0.19,VWS V14.01,2013-07-24 23:13:00,
2013-07-24 19:18:00,66.0,62.3,29.81,NNW,338,6.0,9.0,88,0.00,,---,0.19,VWS V14.01,2013-07-24 23:18:00,
2013-07-24 19:23:00,65.9,62.6,29.81,North,11,3.0,9.0,89,0.00,,---,0.19,VWS V14.01,2013-07-24 23:23:00,
2013-07-24 19:28:00,65.9,62.9,29.81,WNW,292,3.0,9.0,90,0.00,,---,0.19,VWS V14.01,2013-07-24 23:28:00,
2013-07-24 19:33:00,65.8,62.8,29.81,NNW,338,1.0,5.0,90,0.00,,---,0.19,VWS V14.01,2013-07-24 23:33:00,
2013-07-24 19:38:00,65.8,62.5,29.81,NNW,329,1.0,8.0,89,0.00,,---,0.19,VWS V14.01,2013-07-24 23:38:00,
2013-07-24 19:43:00,65.4,61.8,29.82,NNE,20,3.0,8.0,88,0.00,,---,0.19,VWS V14.01,2013-07-24 23:43:00,
2013-07-24 19:48:00,65.0,61.4,29.82,NNW,346,1.0,9.0,88,0.00,,---,0.19,VWS V14.01,2013-07-24 23:48:00,
2013-07-24 19:53:00,64.8,61.5,29.82,NNW,329,1.0,9.0,89,0.00,,---,0.19,VWS V14.01,2013-07-24 23:53:00,
2013-07-24 19:58:00,64.6,61.3,29.82,NNW,341,7.0,9.0,89,0.00,,---,0.19,VWS V14.01,2013-07-24 23:58:00,
2013-07-24 20:03:00,64.5,61.5,29.83,NW,323,1.0,4.0,90,0.00,,---,0.19,VWS V14.01,2013-07-25 00:03:00,
2013-07-24 20:08:00,64.4,61.7,29.83,WNW,284,1.0,5.0,91,0.00,,---,0.19,VWS V14.01,2013-07-25 00:08:00,
2013-07-24 20:13:00,64.3,61.6,29.83,WNW,302,2.0,6.0,91,0.00,,---,0.19,VWS V14.01,2013-07-25 00:13:00,
2013-07-24 20:18:00,64.2,61.8,29.83,North,359,3.0,9.0,92,0.00,,---,0.19,VWS V14.01,2013-07-25 00:18:00,
2013-07-24 20:23:00,64.1,61.7,29.83,NW,309,0.0,9.0,92,0.00,,---,0.19,VWS V14.01,2013-07-25 00:23:00,
2013-07-24 20:28:00,64.0,61.6,29.84,WNW,297,2.0,9.0,92,0.00,,---,0.19,VWS V14.01,2013-07-25 00:28:00,
2013-07-24 20:33:00,63.8,61.4,29.84,East,81,1.0,4.0,92,0.00,,---,0.19,VWS V14.01,2013-07-25 00:33:00,
2013-07-24 20:38:00,63.6,61.2,29.84,NNW,336,0.0,4.0,92,0.00,,---,0.19,VWS V14.01,2013-07-25 00:38:00,
2013-07-24 20:43:00,63.4,61.0,29.84,North,8,4.0,4.0,92,0.00,,---,0.19,VWS V14.01,2013-07-25 00:43:00,
2013-07-24 20:48:00,63.2,60.8,29.84,NNW,333,1.0,4.0,92,0.00,,---,0.19,VWS V14.01,2013-07-25 00:48:00,
2013-07-24 20:53:00,62.9,60.8,29.84,North,5,1.0,4.0,93,0.00,,---,0.19,VWS V14.01,2013-07-25 00:53:00,
2013-07-24 20:58:00,62.6,60.5,29.84,North,356,2.0,5.0,93,0.00,,---,0.19,VWS V14.01,2013-07-25 00:58:00,
2013-07-24 21:03:00,62.4,60.3,29.84,NNW,345,1.0,3.0,93,0.00,,---,0.19,VWS V14.01,2013-07-25 01:03:00,
2013-07-24 21:08:00,62.3,60.6,29.85,NNW,335,0.0,3.0,94,0.00,,---,0.19,VWS V14.01,2013-07-25 01:08:00,
2013-07-24 21:13:00,62.1,60.4,29.85,North,352,1.0,3.0,94,0.00,,---,0.19,VWS V14.01,2013-07-25 01:13:00,
2013-07-24 21:18:00,62.0,60.6,29.85,NNW,338,0.0,3.0,95,0.00,,---,0.19,VWS V14.01,2013-07-25 01:18:00,
2013-07-24 21:23:00,61.8,60.4,29.85,North,356,1.0,7.0,95,0.00,,---,0.19,VWS V14.01,2013-07-25 01:23:00,
2013-07-24 21:28:00,61.7,60.3,29.86,NNW,336,0.0,7.0,95,0.00,,---,0.19,VWS V14.01,2013-07-25 01:28:00,
2013-07-24 21:33:00,61.6,60.2,29.86,North,356,0.0,1.0,95,0.00,,---,0.19,VWS V14.01,2013-07-25 01:33:00,
2013-07-24 21:38:00,61.5,60.3,29.86,North,356,0.0,1.0,96,0.00,,---,0.19,VWS V14.01,2013-07-25 01:38:00,
2013-07-24 21:43:00,61.5,60.3,29.86,NNW,333,0.0,1.0,96,0.00,,---,0.19,VWS V14.01,2013-07-25 01:43:00,
2013-07-24 21:48:00,61.5,60.3,29.86,NNW,348,0.0,1.0,96,0.00,,---,0.19,VWS V14.01,2013-07-25 01:48:00,
2013-07-24 21:53:00,61.5,60.3,29.86,WNW,297,0.0,1.0,96,0.00,,---,0.19,VWS V14.01,2013-07-25 01:53:00,
2013-07-24 21:58:00,61.5,60.3,29.86,WNW,300,0.0,1.0,96,0.00,,---,0.19,VWS V14.01,2013-07-25 01:58:00,
2013-07-24 22:03:00,61.5,60.3,29.87,WNW,301,0.0,1.0,96,0.00,,---,0.19,VWS V14.01,2013-07-25 02:03:00,
2013-07-24 22:08:00,61.5,60.6,29.87,NNW,328,0.0,1.0,97,0.00,,---,0.19,VWS V14.01,2013-07-25 02:08:00,
2013-07-24 22:13:00,61.5,60.6,29.87,NW,306,0.0,1.0,97,0.00,,---,0.19,VWS V14.01,2013-07-25 02:13:00,
2013-07-24 22:18:00,61.5,60.6,29.87,WNW,286,0.0,1.0,97,0.00,,---,0.19,VWS V14.01,2013-07-25 02:18:00,
2013-07-24 22:23:00,61.5,60.6,29.88,NNW,340,0.0,2.0,97,0.00,,---,0.19,VWS V14.01,2013-07-25 02:23:00,
2013-07-24 22:28:00,61.4,60.5,29.88,NW,309,0.0,2.0,97,0.00,,---,0.19,VWS V14.01,2013-07-25 02:28:00,
2013-07-24 22:33:00,61.4,60.5,29.88,NNW,338,1.0,4.0,97,0.00,,---,0.19,VWS V14.01,2013-07-25 02:33:00,
2013-07-24 22:38:00,61.3,60.4,29.88,North,11,1.0,4.0,97,0.00,,---,0.19,VWS V14.01,2013-07-25 02:38:00,
2013-07-24 22:43:00,61.2,60.3,29.88,NW,323,0.0,4.0,97,0.00,,---,0.19,VWS V14.01,2013-07-25 02:43:00,
2013-07-24 22:48:00,61.1,60.2,29.88,NNW,345,0.0,4.0,97,0.00,,---,0.19,VWS V14.01,2013-07-25 02:48:00,
2013-07-24 22:53:00,60.9,60.0,29.88,NNW,330,0.0,4.0,97,0.00,,---,0.19,VWS V14.01,2013-07-25 02:53:00,
2013-07-24 22:58:00,60.7,59.8,29.88,NNW,330,0.0,4.0,97,0.00,,---,0.19,VWS V14.01,2013-07-25 02:58:00,
2013-07-24 23:03:00,60.6,59.8,29.88,NNW,330,0.0,1.0,97,0.00,,---,0.19,VWS V14.01,2013-07-25 03:03:00,
2013-07-24 23:08:00,60.5,59.9,29.88,NNW,330,0.0,1.0,98,0.00,,---,0.19,VWS V14.01,2013-07-25 03:08:00,
2013-07-24 23:14:00,60.5,59.9,29.88,NW,324,0.0,1.0,98,0.00,,---,0.19,VWS V14.01,2013-07-25 03:14:00,
2013-07-24 23:19:00,60.5,59.9,29.88,North,358,0.0,3.0,98,0.00,,---,0.19,VWS V14.01,2013-07-25 03:19:00,
2013-07-24 23:24:00,60.5,59.9,29.88,North,359,0.0,3.0,98,0.00,,---,0.19,VWS V14.01,2013-07-25 03:24:00,
2013-07-24 23:29:00,60.6,60.0,29.88,NNW,345,0.0,3.0,98,0.00,,---,0.19,VWS V14.01,2013-07-25 03:29:00,
2013-07-24 23:34:00,60.7,60.1,29.88,NNW,330,1.0,1.0,98,0.00,,---,0.19,VWS V14.01,2013-07-25 03:34:00,
2013-07-24 23:39:00,60.7,60.1,29.88,ENE,67,0.0,1.0,98,0.00,,---,0.19,VWS V14.01,2013-07-25 03:39:00,
2013-07-24 23:44:00,60.7,60.1,29.88,North,354,0.0,1.0,98,0.00,,---,0.19,VWS V14.01,2013-07-25 03:44:00,
2013-07-24 23:50:00,60.7,60.1,29.88,NNW,336,0.0,3.0,98,0.00,,---,0.19,VWS V14.01,2013-07-25 03:50:00,
2013-07-24 23:55:00,60.6,60.0,29.88,NNW,342,0.0,3.0,98,0.00,,---,0.19,VWS V14.01,2013-07-25 03:55:00,